Time;durP1;ratioP1;P1;durP2;ratioP2;P2;SDS_P1;SDS_P2;PMS_P1;PMS_P2;Temp;Humidity;BMP_temperature;BMP_pressure;BME280_temperature;BME280_humidity;BME280_pressure;Samples;Min_cycle;Max_cycle;Signal;HPM_P1;HPM_P2
2022/06/30 00:01:45;;;;;;;4.35;3.37;;;;;;;16.60;65.22;95567.28;1808169;79;21008;-64
2022/06/30 00:04:12;;;;;;;3.25;2.85;;;;;;;16.55;65.92;95570.14;1808016;79;21055;-64
2022/06/30 00:06:40;;;;;;;3.20;2.90;;;;;;;16.51;65.46;95569.03;1808270;79;21011;-64
2022/06/30 00:09:07;;;;;;;3.27;2.98;;;;;;;16.49;65.36;95569.55;1808191;79;21051;-64
2022/06/30 00:11:34;;;;;;;3.83;3.50;;;;;;;16.49;65.78;95566.89;1808056;79;21015;-64
2022/06/30 00:14:00;;;;;;;5.05;3.40;;;;;;;16.48;66.17;95562.47;1807914;79;21003;-64
2022/06/30 00:16:27;;;;;;;4.10;3.20;;;;;;;16.54;66.42;95558.23;1808129;79;21513;-64
2022/06/30 00:18:54;;;;;;;3.58;3.27;;;;;;;16.53;66.54;95554.72;1808014;79;21035;-64
2022/06/30 00:21:21;;;;;;;3.45;3.10;;;;;;;16.52;65.53;95562.75;1807813;79;21027;-64
2022/06/30 00:23:48;;;;;;;4.85;3.42;;;;;;;16.48;65.91;95558.48;1808008;79;20968;-64
2022/06/30 00:26:15;;;;;;;4.40;3.98;;;;;;;16.51;65.58;95564.56;1806904;79;21044;-64
2022/06/30 00:28:41;;;;;;;3.50;3.20;;;;;;;16.57;65.51;95563.42;1805507;79;21537;-64
2022/06/30 00:31:08;;;;;;;4.12;3.42;;;;;;;16.55;66.55;95559.95;1805509;79;21430;-64
2022/06/30 00:33:35;;;;;;;3.77;3.47;;;;;;;16.48;66.45;95557.14;1805488;79;20991;-64
2022/06/30 00:36:02;;;;;;;4.00;3.60;;;;;;;16.51;65.85;95559.23;1805441;79;20975;-64
2022/06/30 00:38:29;;;;;;;3.63;3.33;;;;;;;16.59;65.82;95554.91;1805572;79;21474;-64
2022/06/30 00:40:55;;;;;;;4.50;3.55;;;;;;;16.63;65.46;95553.39;1805656;79;21035;-64
2022/06/30 00:43:22;;;;;;;4.58;3.25;;;;;;;16.63;66.28;95555.16;1805232;79;20992;-64
2022/06/30 00:45:49;;;;;;;4.45;3.37;;;;;;;16.48;66.54;95554.05;1805677;79;21000;-64
2022/06/30 00:48:18;;;;;;;4.05;3.25;;;;;;;16.38;67.14;95565.55;1805397;79;21003;-64
2022/06/30 00:50:45;;;;;;;3.72;3.42;;;;;;;16.34;67.52;95556.41;1805707;79;21031;-64
2022/06/30 00:53:12;;;;;;;4.33;3.92;;;;;;;16.33;67.04;95554.66;1805783;79;20963;-64
2022/06/30 00:55:40;;;;;;;4.35;3.85;;;;;;;16.38;66.94;95548.23;1805644;79;20976;-64
2022/06/30 00:58:09;;;;;;;4.55;4.10;;;;;;;16.39;66.26;95549.09;1805844;79;21026;-64
2022/06/30 01:00:41;;;;;;;6.08;3.80;;;;;;;16.34;66.73;95547.09;1805775;79;21450;-64
2022/06/30 01:03:09;;;;;;;4.47;3.80;;;;;;;16.24;67.56;95543.94;1804722;79;20995;-64
2022/06/30 01:05:37;;;;;;;4.42;4.03;;;;;;;16.28;67.64;95544.23;1805622;79;21015;-64
2022/06/30 01:08:05;;;;;;;4.05;3.75;;;;;;;16.34;66.82;95546.62;1805782;79;20991;-64
2022/06/30 01:13:18;;;;;;;5.30;3.87;;;;;;;16.32;67.77;95540.95;1805777;79;20968;-64
2022/06/30 01:15:44;;;;;;;5.70;3.77;;;;;;;16.18;67.41;95541.08;1805758;79;20964;-64
2022/06/30 01:18:11;;;;;;;4.90;4.50;;;;;;;16.10;68.83;95542.30;1805227;79;21011;-64
2022/06/30 01:20:38;;;;;;;5.72;3.95;;;;;;;16.02;69.30;95549.27;1805825;79;21080;-64
2022/06/30 01:23:06;;;;;;;4.50;4.10;;;;;;;16.00;68.82;95548.03;1805164;79;21019;-64
2022/06/30 01:25:34;;;;;;;4.37;3.90;;;;;;;15.96;69.71;95545.55;1805716;79;21019;-64
2022/06/30 01:28:02;;;;;;;5.25;4.10;;;;;;;15.92;69.60;95555.42;1805484;79;21075;-64
2022/06/30 01:30:28;;;;;;;4.05;3.40;;;;;;;15.90;69.47;95548.00;1805595;79;20948;-64
2022/06/30 01:32:55;;;;;;;4.30;3.90;;;;;;;15.91;69.27;95552.84;1805379;79;21031;-64
2022/06/30 01:35:22;;;;;;;4.50;4.10;;;;;;;15.86;70.15;95547.70;1805789;79;21082;-64
2022/06/30 01:37:57;;;;;;;4.90;4.37;;;;;;;15.86;69.75;95550.84;1805227;79;21007;-64
2022/06/30 01:40:27;;;;;;;4.17;3.77;;;;;;;15.87;69.79;95549.42;1805763;79;21474;-64
2022/06/30 01:42:55;;;;;;;3.55;3.25;;;;;;;15.82;69.89;95547.41;1805627;79;21472;-64
2022/06/30 01:45:23;;;;;;;5.62;3.58;;;;;;;15.77;69.34;95548.95;1805556;79;21481;-64
2022/06/30 01:47:53;;;;;;;3.75;3.33;;;;;;;15.82;69.38;95548.74;1805484;79;21075;-64
2022/06/30 01:50:27;;;;;;;4.30;3.83;;;;;;;15.85;69.83;95547.75;1805662;79;20932;-64
2022/06/30 01:52:54;;;;;;;4.95;3.85;;;;;;;15.81;70.21;95540.84;1805560;79;20995;-64
2022/06/30 01:55:21;;;;;;;4.60;4.10;;;;;;;15.82;70.01;95542.09;1805829;79;21560;-64
2022/06/30 01:57:48;;;;;;;5.70;3.75;;;;;;;15.75;69.78;95536.64;1805782;79;20960;-64
2022/06/30 02:00:18;;;;;;;5.78;3.70;;;;;;;15.79;70.43;95538.23;1805709;79;20924;-64
2022/06/30 02:02:46;;;;;;;4.70;3.55;;;;;;;15.78;70.21;95532.52;1805458;79;21430;-64
2022/06/30 02:05:13;;;;;;;4.30;3.90;;;;;;;15.81;69.95;95530.20;1805519;79;20957;-64
2022/06/30 02:07:40;;;;;;;4.03;3.72;;;;;;;15.87;70.13;95534.79;1805661;79;21465;-64
2022/06/30 02:10:11;;;;;;;5.40;3.95;;;;;;;15.94;69.82;95535.42;1805592;79;20940;-64
2022/06/30 02:12:47;;;;;;;5.22;3.87;;;;;;;15.96;69.75;95541.08;1805313;79;21482;-64
2022/06/30 02:15:34;;;;;;;5.67;4.10;;;;;;;15.83;70.18;95534.53;1805638;79;21004;-64
2022/06/30 02:18:04;;;;;;;3.92;3.45;;;;;;;15.78;70.00;95543.16;1805701;79;20960;-64
2022/06/30 02:20:32;;;;;;;4.87;3.75;;;;;;;15.71;70.15;95548.31;1805553;79;20987;-64
2022/06/30 02:23:01;;;;;;;4.25;3.85;;;;;;;15.67;70.25;95546.66;1805651;79;21030;-64
2022/06/30 02:25:30;;;;;;;5.20;4.10;;;;;;;15.70;70.00;95539.91;1805575;79;21051;-64
2022/06/30 02:27:58;;;;;;;9.18;5.60;;;;;;;15.64;70.48;95541.47;1805142;79;21544;-64
2022/06/30 02:30:25;;;;;;;4.80;4.25;;;;;;;15.58;70.22;95538.12;1805689;79;21484;-64
2022/06/30 02:32:53;;;;;;;4.80;3.95;;;;;;;15.46;70.54;95546.57;1805301;79;21015;-64
2022/06/30 02:35:20;;;;;;;4.72;3.72;;;;;;;15.39;70.58;95549.53;1805504;79;20975;-64
2022/06/30 02:37:47;;;;;;;6.15;4.30;;;;;;;15.32;71.88;95551.54;1805453;79;21007;-64
2022/06/30 02:40:14;;;;;;;9.50;4.20;;;;;;;15.30;72.04;95550.29;1805707;79;21059;-64
2022/06/30 02:42:42;;;;;;;11.15;4.70;;;;;;;15.32;72.30;95550.20;1805888;79;21006;-64
2022/06/30 02:45:10;;;;;;;6.75;4.53;;;;;;;15.30;72.02;95547.63;1805534;79;21019;-64
2022/06/30 02:47:41;;;;;;;13.85;4.70;;;;;;;15.31;71.77;95544.50;1805191;79;21442;-64
2022/06/30 02:50:11;;;;;;;4.83;3.92;;;;;;;15.32;72.18;95547.55;1805515;79;20991;-64
2022/06/30 02:52:39;;;;;;;4.22;3.83;;;;;;;15.30;72.40;95548.95;1805723;79;21017;-64
2022/06/30 02:55:08;;;;;;;6.75;4.22;;;;;;;15.30;71.43;95552.09;1805585;79;20983;-64
2022/06/30 02:57:36;;;;;;;4.05;3.72;;;;;;;15.28;72.19;95546.81;1805666;79;20999;-64
2022/06/30 03:00:07;;;;;;;4.08;3.35;;;;;;;15.21;72.48;95546.64;1805628;79;20996;-64
2022/06/30 03:02:34;;;;;;;4.35;3.77;;;;;;;15.21;72.42;95543.98;1805419;79;21539;-64
2022/06/30 03:05:01;;;;;;;4.83;4.42;;;;;;;15.20;72.22;95542.72;1805617;79;20996;-64
2022/06/30 03:07:28;;;;;;;4.95;4.22;;;;;;;15.22;72.53;95535.09;1805372;79;21581;-64
2022/06/30 03:09:54;;;;;;;5.03;3.95;;;;;;;15.20;72.13;95540.06;1805560;79;20999;-64
2022/06/30 03:12:21;;;;;;;4.22;3.80;;;;;;;15.20;72.28;95534.75;1805634;79;20999;-64
2022/06/30 03:14:48;;;;;;;4.97;3.95;;;;;;;15.25;71.95;95538.96;1805645;79;21062;-64
2022/06/30 03:17:15;;;;;;;5.55;4.67;;;;;;;15.29;72.60;95534.38;1805272;79;21107;-64
2022/06/30 03:19:41;;;;;;;6.30;5.70;;;;;;;15.41;72.34;95536.58;1805431;79;21011;-64
2022/06/30 03:22:08;;;;;;;5.58;5.08;;;;;;;15.46;71.76;95537.27;1805864;79;21035;-64
2022/06/30 03:24:35;;;;;;;7.65;4.55;;;;;;;15.54;71.74;95539.16;1805595;79;21033;-64
2022/06/30 03:27:02;;;;;;;5.12;4.55;;;;;;;15.58;71.57;95542.11;1803546;79;21450;-64
2022/06/30 03:29:28;;;;;;;5.35;3.65;;;;;;;15.68;71.93;95537.77;1800146;79;20940;-64
2022/06/30 03:31:55;;;;;;;4.97;3.90;;;;;;;15.75;72.14;95532.65;1800438;79;20961;-64
2022/06/30 03:34:22;;;;;;;6.65;4.62;;;;;;;15.88;71.94;95531.69;1800092;79;21007;-64
2022/06/30 03:36:49;;;;;;;5.00;4.50;;;;;;;16.01;71.29;95536.44;1800331;79;20957;-65
2022/06/30 03:39:15;;;;;;;5.65;4.87;;;;;;;16.06;71.01;95535.39;1800413;79;20976;-64
2022/06/30 03:41:42;;;;;;;6.47;3.95;;;;;;;16.10;71.00;95530.33;1800295;79;21011;-64
2022/06/30 03:44:09;;;;;;;5.92;5.20;;;;;;;16.17;71.09;95538.47;1800162;79;21481;-64
2022/06/30 03:46:35;;;;;;;8.75;4.85;;;;;;;16.33;70.94;95533.36;1800409;79;21048;-64
2022/06/30 03:49:02;;;;;;;5.83;5.10;;;;;;;16.46;69.78;95531.93;1800102;80;20983;-64
2022/06/30 03:51:29;;;;;;;6.15;4.75;;;;;;;16.55;70.04;95533.31;1799819;79;20988;-64
2022/06/30 03:53:56;;;;;;;7.12;4.87;;;;;;;16.71;69.90;95531.73;1800458;79;21007;-64
2022/06/30 03:56:25;;;;;;;5.33;4.83;;;;;;;16.82;69.19;95532.16;1800090;80;21494;-65
2022/06/30 03:58:52;;;;;;;5.55;4.90;;;;;;;16.89;69.24;95533.23;1800147;80;20999;-64
2022/06/30 04:01:19;;;;;;;5.30;4.37;;;;;;;16.79;70.59;95530.10;1800271;79;20957;-65
2022/06/30 04:03:46;;;;;;;6.20;5.12;;;;;;;16.73;70.90;95537.88;1800163;79;20987;-64
2022/06/30 04:06:13;;;;;;;7.75;5.30;;;;;;;16.80;70.51;95535.81;1799718;79;21015;-64
2022/06/30 04:08:40;;;;;;;6.08;4.67;;;;;;;16.95;70.44;95532.47;1800500;79;20995;-64
2022/06/30 04:11:07;;;;;;;5.50;4.75;;;;;;;17.09;70.29;95533.20;1800120;80;21553;-64
2022/06/30 04:13:34;;;;;;;8.53;5.10;;;;;;;17.26;69.80;95535.08;1799990;79;20948;-64
2022/06/30 04:16:00;;;;;;;9.28;4.65;;;;;;;17.39;69.17;95524.27;1800437;79;21000;-64
2022/06/30 04:18:27;;;;;;;6.28;5.00;;;;;;;17.53;68.55;95526.27;1799849;80;20984;-64
2022/06/30 04:20:54;;;;;;;5.60;5.10;;;;;;;17.62;68.48;95527.66;1800253;79;21030;-64
2022/06/30 04:23:21;;;;;;;7.95;5.30;;;;;;;17.72;68.70;95527.62;1800262;79;21537;-64
2022/06/30 04:25:48;;;;;;;7.08;5.60;;;;;;;17.84;68.56;95532.84;1800376;79;21011;-64
2022/06/30 04:28:14;;;;;;;8.10;5.05;;;;;;;17.92;67.76;95537.38;1806483;79;21003;-64
2022/06/30 04:33:26;;;;;;;7.25;5.15;;;;;;;18.20;66.45;95529.34;1808313;79;20991;-64
2022/06/30 04:35:53;;;;;;;6.35;5.17;;;;;;;18.20;66.45;95529.34;1808293;79;21007;-64
2022/06/30 04:38:19;;;;;;;9.10;5.25;;;;;;;18.34;66.46;95531.73;1808347;79;20980;-64
2022/06/30 04:43:31;;;;;;;5.95;5.22;;;;;;;18.59;65.01;95529.98;1808480;79;20995;-64
2022/06/30 04:45:58;;;;;;;6.50;4.70;;;;;;;18.79;65.37;95530.80;1807876;79;20999;-64
2022/06/30 04:48:25;;;;;;;6.22;4.80;;;;;;;18.92;64.69;95531.89;1808422;79;20932;-64
2022/06/30 04:50:51;;;;;;;6.55;4.92;;;;;;;19.05;63.78;95533.92;1808244;79;20995;-64
2022/06/30 04:53:18;;;;;;;9.48;4.70;;;;;;;19.15;63.57;95533.81;1808227;79;20967;-64
2022/06/30 04:55:45;;;;;;;8.45;5.22;;;;;;;19.25;62.79;95528.36;1807817;79;21039;-64
2022/06/30 04:58:12;;;;;;;5.17;4.67;;;;;;;19.37;62.69;95534.87;1808529;79;20979;-64
2022/06/30 05:00:38;;;;;;;7.05;5.00;;;;;;;19.56;63.03;95532.08;1808175;79;21015;-64
2022/06/30 05:03:05;;;;;;;7.58;5.12;;;;;;;19.73;62.99;95528.48;1808286;79;20984;-64
2022/06/30 05:05:32;;;;;;;7.40;4.83;;;;;;;19.91;62.38;95529.25;1808351;79;21393;-64
2022/06/30 05:07:58;;;;;;;10.72;4.70;;;;;;;20.06;62.41;95529.27;1807870;79;21012;-64
2022/06/30 05:10:25;;;;;;;5.22;4.72;;;;;;;20.23;61.79;95539.00;1808547;79;20928;-64
2022/06/30 05:12:51;;;;;;;4.90;4.47;;;;;;;20.37;60.92;95534.20;1808208;79;21038;-64
2022/06/30 05:15:18;;;;;;;6.15;4.47;;;;;;;20.51;60.49;95534.72;1808174;79;21011;-64
2022/06/30 05:17:44;;;;;;;9.08;5.40;;;;;;;20.64;60.41;95537.11;1808256;79;21528;-64
2022/06/30 05:20:12;;;;;;;5.67;4.47;;;;;;;20.80;60.64;95534.86;1808039;79;21067;-64
2022/06/30 05:22:38;;;;;;;5.25;4.85;;;;;;;20.91;59.38;95533.23;1808095;79;21007;-64
2022/06/30 05:27:51;;;;;;;6.35;4.75;;;;;;;21.13;58.49;95538.66;1804370;79;21039;-64
2022/06/30 05:30:18;;;;;;;8.50;5.10;;;;;;;21.29;59.31;95542.14;1800288;79;21027;-64
2022/06/30 05:32:46;;;;;;;6.58;4.78;;;;;;;21.44;58.68;95547.52;1800240;79;20968;-64
2022/06/30 05:35:13;;;;;;;8.58;5.00;;;;;;;21.55;57.63;95543.70;1800133;79;21031;-64
2022/06/30 05:37:40;;;;;;;5.45;4.85;;;;;;;21.70;58.00;95540.53;1800335;79;21049;-64
2022/06/30 05:40:08;;;;;;;7.78;5.20;;;;;;;21.87;58.20;95538.95;1800400;79;20944;-65
2022/06/30 05:42:36;;;;;;;7.53;5.17;;;;;;;22.04;57.96;95536.53;1800197;79;20976;-64
2022/06/30 05:45:04;;;;;;;4.90;4.40;;;;;;;22.20;58.14;95535.95;1800170;80;21485;-65
2022/06/30 05:47:31;;;;;;;5.95;4.87;;;;;;;22.36;57.85;95534.45;1800563;79;20986;-65
2022/06/30 05:49:57;;;;;;;7.10;5.22;;;;;;;22.51;56.80;95530.38;1800344;79;20992;-65
2022/06/30 05:52:24;;;;;;;16.85;6.90;;;;;;;22.64;56.49;95528.09;1800459;79;21035;-65
2022/06/30 05:54:51;;;;;;;11.78;7.42;;;;;;;22.81;56.18;95532.34;1800410;79;21016;-65
2022/06/30 05:57:18;;;;;;;17.80;6.50;;;;;;;22.94;55.92;95532.85;1800417;79;20995;-65
2022/06/30 05:59:44;;;;;;;16.42;6.50;;;;;;;23.09;55.54;95534.52;1800347;79;21536;-65
2022/06/30 06:02:11;;;;;;;21.12;5.90;;;;;;;23.24;55.26;95533.45;1800431;80;21470;-65
2022/06/30 06:04:38;;;;;;;15.03;5.87;;;;;;;23.39;54.51;95528.83;1800327;79;21011;-64
2022/06/30 06:07:05;;;;;;;14.70;5.65;;;;;;;23.54;54.47;95526.88;1799997;79;21563;-65
2022/06/30 06:09:32;;;;;;;16.95;5.85;;;;;;;23.68;54.05;95523.19;1800048;80;21019;-65
2022/06/30 06:11:58;;;;;;;19.57;5.83;;;;;;;23.85;53.67;95523.36;1780260;80;21055;-65
2022/06/30 06:14:25;;;;;;;32.93;6.90;;;;;;;23.99;53.60;95524.58;1800419;79;20992;-65
2022/06/30 06:16:52;;;;;;;28.35;6.37;;;;;;;24.18;52.97;95528.12;1800244;80;21293;-65
2022/06/30 06:19:19;;;;;;;28.95;5.95;;;;;;;24.36;52.97;95531.28;1800170;79;21470;-65
2022/06/30 06:21:45;;;;;;;19.82;6.30;;;;;;;24.53;52.68;95536.31;1800448;79;20984;-65
2022/06/30 06:24:12;;;;;;;24.98;6.40;;;;;;;24.68;51.72;95530.26;1800350;79;20999;-65
2022/06/30 06:26:39;;;;;;;24.52;6.10;;;;;;;24.87;51.73;95535.59;1800336;79;21054;-65
2022/06/30 06:29:06;;;;;;;18.45;6.20;;;;;;;25.03;51.26;95542.91;1800210;79;21016;-65
2022/06/30 06:31:35;;;;;;;19.12;6.50;;;;;;;25.18;50.19;95542.25;1800175;79;21042;-65
2022/06/30 06:34:03;;;;;;;16.32;6.20;;;;;;;25.33;49.40;95545.11;1800160;80;20996;-65
2022/06/30 06:36:30;;;;;;;16.05;5.78;;;;;;;25.50;49.15;95538.86;1800312;79;20976;-65
2022/06/30 06:39:00;;;;;;;15.98;5.97;;;;;;;25.65;48.48;95527.72;1800110;80;20996;-65
2022/06/30 06:41:27;;;;;;;12.55;5.47;;;;;;;25.85;49.20;95531.53;1800339;79;21023;-65
2022/06/30 06:43:54;;;;;;;18.57;5.78;;;;;;;26.07;48.88;95538.77;1800469;79;20956;-65
2022/06/30 06:46:26;;;;;;;12.95;5.78;;;;;;;26.27;48.66;95537.65;1800297;79;20965;-65
2022/06/30 06:48:49;;;;;;;14.45;5.65;;;;;;;26.45;47.91;95539.33;1800014;79;21000;-65
2022/06/30 06:51:16;;;;;;;16.48;5.35;;;;;;;26.61;46.16;95540.30;1799782;80;21506;-65
2022/06/30 06:53:43;;;;;;;14.90;5.00;;;;;;;26.78;45.21;95542.45;1800231;79;21038;-65
2022/06/30 06:56:10;;;;;;;10.95;5.12;;;;;;;26.94;45.14;95539.33;1800062;79;21012;-65
2022/06/30 06:58:37;;;;;;;8.65;4.92;;;;;;;27.11;43.23;95543.30;1800019;80;21088;-65
2022/06/30 07:01:04;;;;;;;7.72;5.25;;;;;;;27.26;42.29;95540.66;1799975;79;21110;-65
2022/06/30 07:03:32;;;;;;;10.68;5.45;;;;;;;27.44;41.82;95546.33;1800220;79;21012;-65
2022/06/30 07:05:59;;;;;;;10.55;5.15;;;;;;;27.60;42.84;95546.73;1800386;79;21004;-65
2022/06/30 07:08:25;;;;;;;10.80;5.12;;;;;;;27.80;42.95;95541.42;1800357;79;21442;-65
2022/06/30 07:10:55;;;;;;;6.37;4.60;;;;;;;27.91;40.83;95546.77;1799900;80;21083;-65
2022/06/30 07:13:21;;;;;;;6.10;4.58;;;;;;;28.05;41.59;95552.34;1800290;79;20991;-65
2022/06/30 07:15:48;;;;;;;8.38;4.10;;;;;;;28.17;40.53;95547.19;1800212;79;20997;-65
2022/06/30 07:18:14;;;;;;;11.48;4.87;;;;;;;28.26;39.67;95550.41;1800310;79;20948;-65
2022/06/30 07:20:42;;;;;;;5.37;4.87;;;;;;;28.38;40.02;95549.81;1800168;79;20980;-65
2022/06/30 07:23:09;;;;;;;6.45;4.55;;;;;;;28.47;39.69;95543.56;1800192;79;20972;-65
2022/06/30 07:25:35;;;;;;;4.95;4.20;;;;;;;28.60;39.76;95543.33;1800256;79;21050;-65
2022/06/30 07:28:04;;;;;;;6.65;4.25;;;;;;;28.75;39.17;95547.82;1799760;79;21023;-65
2022/06/30 07:30:31;;;;;;;4.85;4.47;;;;;;;28.85;38.67;95547.36;1800295;80;21023;-65
2022/06/30 07:32:58;;;;;;;6.40;3.83;;;;;;;29.02;38.56;95536.77;1800201;80;20995;-65
2022/06/30 07:35:25;;;;;;;7.22;4.45;;;;;;;29.20;38.74;95537.79;1799751;79;21071;-65
2022/06/30 07:37:52;;;;;;;7.28;4.53;;;;;;;29.38;38.16;95536.55;1800289;79;21007;-65
2022/06/30 07:40:19;;;;;;;5.42;4.20;;;;;;;29.60;38.95;95538.60;1799939;79;21102;-65
2022/06/30 07:42:45;;;;;;;6.33;4.28;;;;;;;29.70;36.40;95536.75;1800296;79;21434;-65
2022/06/30 07:45:12;;;;;;;8.00;4.37;;;;;;;29.73;35.83;95543.24;1800227;79;20984;-65
2022/06/30 07:47:40;;;;;;;6.03;4.20;;;;;;;29.79;36.17;95535.88;1800483;79;21035;-65
2022/06/30 07:50:07;;;;;;;4.80;4.40;;;;;;;29.93;36.12;95533.16;1799991;79;20996;-65
2022/06/30 07:52:34;;;;;;;6.33;4.50;;;;;;;30.05;35.19;95536.05;1800331;79;20991;-65
2022/06/30 07:55:02;;;;;;;4.90;4.00;;;;;;;30.11;35.45;95534.08;1800110;80;21003;-65
2022/06/30 07:57:29;;;;;;;6.25;3.85;;;;;;;30.24;35.83;95541.95;1800128;80;20976;-65
2022/06/30 07:59:56;;;;;;;4.60;4.20;;;;;;;30.40;34.71;95534.49;1800456;80;21003;-65
2022/06/30 08:02:23;;;;;;;5.12;4.00;;;;;;;30.56;34.08;95537.39;1800496;79;20991;-65
2022/06/30 08:04:50;;;;;;;4.58;3.98;;;;;;;30.73;34.17;95547.97;1800228;79;21016;-65
2022/06/30 08:07:16;;;;;;;4.33;3.90;;;;;;;30.88;35.47;95546.12;1800258;79;20956;-65
2022/06/30 08:09:43;;;;;;;5.62;3.98;;;;;;;30.92;35.00;95546.14;1799927;80;21510;-65
2022/06/30 08:12:11;;;;;;;4.47;4.08;;;;;;;31.00;35.18;95547.09;1800100;79;21071;-65
2022/06/30 08:14:38;;;;;;;4.45;3.92;;;;;;;31.16;34.68;95542.30;1800274;79;21450;-65
2022/06/30 08:17:05;;;;;;;4.15;3.75;;;;;;;31.25;34.70;95540.52;1800318;80;21457;-65
2022/06/30 08:19:33;;;;;;;3.98;3.65;;;;;;;31.38;35.41;95536.91;1799896;80;21051;-65
2022/06/30 08:22:00;;;;;;;3.85;3.40;;;;;;;31.52;33.79;95542.28;1800382;79;20960;-65
2022/06/30 08:24:27;;;;;;;4.40;3.62;;;;;;;31.55;33.87;95535.66;1799907;80;21024;-65
2022/06/30 08:26:54;;;;;;;4.28;3.90;;;;;;;31.68;34.65;95538.33;1800152;80;21004;-65
2022/06/30 08:29:21;;;;;;;4.92;3.90;;;;;;;31.78;34.34;95532.77;1800191;79;21011;-65
2022/06/30 08:31:47;;;;;;;3.90;3.60;;;;;;;31.77;33.50;95544.67;1799941;79;21088;-65
2022/06/30 08:34:14;;;;;;;4.47;3.72;;;;;;;31.76;34.26;95527.13;1800403;79;20999;-65
2022/06/30 08:36:41;;;;;;;5.08;4.03;;;;;;;31.90;33.37;95534.22;1800414;79;20980;-65
2022/06/30 08:42:02;;;;;;;3.83;3.42;;;;;;;32.06;33.24;95533.98;1800187;79;21075;-65
2022/06/30 08:44:23;;;;;;;4.28;3.55;;;;;;;32.25;32.76;95528.77;1800391;79;20948;-65
2022/06/30 08:46:50;;;;;;;3.98;3.65;;;;;;;32.32;32.04;95530.69;1800145;80;20999;-65
2022/06/30 08:49:17;;;;;;;4.53;3.75;;;;;;;32.45;32.37;95526.64;1800198;80;21012;-65
2022/06/30 08:51:46;;;;;;;4.37;3.67;;;;;;;32.63;32.82;95519.22;1800288;79;20972;-65
2022/06/30 08:54:15;;;;;;;4.53;3.80;;;;;;;32.83;31.25;95525.77;1799923;79;21498;-65
2022/06/30 08:56:44;;;;;;;4.05;3.58;;;;;;;32.75;30.42;95523.34;1800137;80;21340;-65
2022/06/30 08:59:10;;;;;;;4.33;3.22;;;;;;;32.82;30.72;95522.18;1800207;79;20968;-65
2022/06/30 09:01:37;;;;;;;7.00;3.60;;;;;;;32.93;30.69;95516.90;1780128;80;21000;-65
2022/06/30 09:04:07;;;;;;;6.92;4.08;;;;;;;33.05;29.69;95514.22;1799981;79;21059;-65
2022/06/30 09:06:33;;;;;;;6.90;3.67;;;;;;;33.11;29.35;95509.45;1800093;79;21050;-65
2022/06/30 09:09:00;;;;;;;4.42;3.65;;;;;;;33.22;29.66;95508.78;1800381;79;21423;-65
2022/06/30 09:11:54;;;;;;;4.67;3.50;;;;;;;33.30;29.72;95509.63;1800358;79;20988;-65
2022/06/30 09:14:42;;;;;;;5.05;3.50;;;;;;;33.38;28.91;95507.39;1800121;79;20992;-65
2022/06/30 09:17:22;;;;;;;5.85;3.22;;;;;;;33.51;29.21;95505.50;1800201;79;21028;-65
2022/06/30 09:20:00;;;;;;;8.85;3.77;;;;;;;33.52;29.69;95503.13;1800308;79;21003;-65
2022/06/30 09:22:36;;;;;;;3.90;3.50;;;;;;;33.77;29.13;95502.62;1800235;79;21004;-65
2022/06/30 09:25:11;;;;;;;5.97;3.80;;;;;;;33.85;27.83;95502.59;1799880;80;21053;-65
2022/06/30 09:27:42;;;;;;;5.78;3.72;;;;;;;33.85;28.01;95505.33;1800239;79;20968;-65
2022/06/30 09:30:15;;;;;;;6.00;3.52;;;;;;;33.98;27.63;95499.30;1808042;79;21545;-65
2022/06/30 09:32:52;;;;;;;5.97;4.00;;;;;;;34.01;26.91;95502.53;1808304;79;20991;-65
2022/06/30 09:35:23;;;;;;;4.20;3.90;;;;;;;34.01;26.99;95504.42;1806228;79;21020;-65
2022/06/30 09:38:08;;;;;;;4.70;3.77;;;;;;;34.21;26.31;95496.17;1808127;79;21067;-65
2022/06/30 09:41:00;;;;;;;5.60;3.60;;;;;;;34.33;26.21;95493.06;1808267;79;20987;-65
2022/06/30 09:43:39;;;;;;;4.42;3.40;;;;;;;34.53;26.59;95501.70;1808214;79;20988;-65
2022/06/30 09:46:06;;;;;;;3.80;3.40;;;;;;;34.73;25.74;95498.03;1808265;79;21587;-65
2022/06/30 09:48:37;;;;;;;6.42;3.45;;;;;;;34.86;25.89;95501.88;1808192;79;21512;-65
2022/06/30 09:51:04;;;;;;;3.27;3.03;;;;;;;34.88;25.76;95497.06;1807929;79;21003;-65
2022/06/30 09:53:31;;;;;;;6.30;3.60;;;;;;;35.04;25.40;95497.98;1808289;79;20972;-65
2022/06/30 09:56:14;;;;;;;5.22;3.30;;;;;;;34.89;25.36;95500.66;1807830;79;20976;-66
2022/06/30 09:58:43;;;;;;;3.85;3.27;;;;;;;35.05;25.42;95506.53;1807235;79;20995;-65
2022/06/30 10:01:10;;;;;;;4.20;3.40;;;;;;;35.16;24.50;95498.46;1808228;79;20992;-65
2022/06/30 10:03:48;;;;;;;4.05;3.65;;;;;;;35.22;25.21;95499.93;1808168;79;20999;-65
2022/06/30 10:06:17;;;;;;;3.80;3.50;;;;;;;35.35;24.36;95492.45;1808125;79;21047;-65
2022/06/30 10:08:45;;;;;;;3.65;3.00;;;;;;;35.43;23.52;95490.16;1808275;79;21505;-65
2022/06/30 10:11:12;;;;;;;3.35;3.08;;;;;;;35.51;23.71;95486.84;1808275;79;20996;-65
2022/06/30 10:13:43;;;;;;;3.12;2.85;;;;;;;35.03;24.29;95486.17;1807921;79;21027;-65
2022/06/30 10:16:13;;;;;;;4.87;3.40;;;;;;;35.12;24.92;95484.24;1808553;79;20979;-65
2022/06/30 10:18:41;;;;;;;4.37;3.15;;;;;;;35.40;25.45;95485.89;1808328;79;21045;-65
2022/06/30 10:21:08;;;;;;;3.22;2.85;;;;;;;35.57;24.55;95481.12;1807993;79;21075;-66
2022/06/30 10:23:35;;;;;;;3.83;3.12;;;;;;;35.83;24.12;95477.95;1808084;79;21029;-65
2022/06/30 10:26:03;;;;;;;3.98;3.25;;;;;;;35.96;24.33;95483.67;1808103;79;21102;-65
2022/06/30 10:28:30;;;;;;;5.85;3.50;;;;;;;36.06;23.74;95474.28;1807877;79;20991;-65
2022/06/30 10:31:30;;;;;;;6.30;3.17;;;;;;;36.21;23.00;95471.56;1808087;79;20999;-65
2022/06/30 10:34:02;;;;;;;3.17;2.90;;;;;;;36.23;22.92;95455.75;1808164;79;21059;-65
2022/06/30 10:36:39;;;;;;;5.80;3.08;;;;;;;36.26;23.83;95461.70;1807244;79;21015;-65
2022/06/30 10:39:20;;;;;;;3.55;3.25;;;;;;;36.44;23.54;95452.20;1781755;79;21493;-65
2022/06/30 10:41:48;;;;;;;3.73;3.30;;;;;;;36.58;22.20;95443.97;1808377;79;20999;-65
2022/06/30 10:44:22;;;;;;;3.65;3.10;;;;;;;36.60;22.22;95447.38;1808290;79;21022;-65
2022/06/30 10:46:55;;;;;;;5.97;3.33;;;;;;;36.59;22.49;95453.94;1808226;79;21472;-65
2022/06/30 10:49:27;;;;;;;5.72;3.15;;;;;;;36.65;22.25;95449.55;1808183;79;21010;-65
2022/06/30 10:52:19;;;;;;;3.77;2.72;;;;;;;36.62;21.99;95445.83;1807932;79;21449;-66
2022/06/30 10:54:47;;;;;;;6.10;3.12;;;;;;;36.57;21.77;95437.31;1808238;79;21007;-65
2022/06/30 10:57:16;;;;;;;3.00;2.80;;;;;;;36.58;22.86;95434.34;1808451;79;21015;-65
2022/06/30 10:59:43;;;;;;;3.95;3.27;;;;;;;36.82;22.45;95438.64;1808003;79;20960;-65
2022/06/30 11:02:15;;;;;;;3.62;3.05;;;;;;;36.85;21.73;95433.28;1808140;79;20959;-65
2022/06/30 11:04:47;;;;;;;;;;;;;;;36.79;21.73;95433.55;1811185;79;21035;-65
2022/06/30 11:07:25;;;;;;;4.33;3.25;;;;;;;36.86;21.20;95435.50;1807999;79;20134;-65
2022/06/30 11:09:57;;;;;;;3.83;3.00;;;;;;;36.94;21.61;95425.73;1807994;79;21003;-65
2022/06/30 11:12:36;;;;;;;;;;;;;;;37.03;21.35;95427.32;1810901;79;20983;-65
2022/06/30 11:15:01;;;;;;;3.90;3.47;;;;;;;37.05;21.27;95428.02;1808153;79;20107;-65
2022/06/30 11:17:31;;;;;;;3.72;3.42;;;;;;;37.13;21.55;95424.28;1808002;79;20971;-65
2022/06/30 11:20:12;;;;;;;3.55;3.25;;;;;;;37.20;20.89;95420.53;1808052;79;20991;-65
2022/06/30 11:22:40;;;;;;;3.77;3.47;;;;;;;37.20;20.70;95423.81;1808384;79;20932;-65
2022/06/30 11:27:17;;;;;;;7.58;3.52;;;;;;;37.28;21.26;95423.67;1808145;79;21019;-65
2022/06/30 11:27:42;;;;;;;4.50;3.60;;;;;;;37.51;21.64;95425.34;1776897;79;21034;-65
2022/06/30 11:30:12;;;;;;;4.75;3.62;;;;;;;37.54;20.70;95426.34;1805818;79;21475;-65
2022/06/30 11:32:39;;;;;;;6.30;3.85;;;;;;;37.57;20.72;95421.80;1805586;79;20975;-65
2022/06/30 11:35:08;;;;;;;4.65;3.08;;;;;;;37.67;21.63;95424.55;1805593;79;20988;-65
2022/06/30 11:37:35;;;;;;;3.52;3.22;;;;;;;37.77;21.37;95410.93;1805756;79;21441;-66
2022/06/30 11:40:06;;;;;;;3.50;3.15;;;;;;;37.66;21.47;95413.73;1805647;79;20995;-65
2022/06/30 11:42:33;;;;;;;3.47;3.17;;;;;;;37.80;21.35;95416.91;1805806;79;21031;-65
2022/06/30 11:45:00;;;;;;;4.25;3.30;;;;;;;38.02;20.81;95413.55;1805511;79;21467;-65
2022/06/30 11:47:30;;;;;;;4.30;3.33;;;;;;;38.23;21.07;95415.38;1805549;79;21031;-65
2022/06/30 11:49:59;;;;;;;9.78;4.17;;;;;;;38.06;20.25;95403.83;1805234;79;21462;-65
2022/06/30 11:52:37;;;;;;;3.70;3.20;;;;;;;38.00;19.97;95396.40;1805496;79;20963;-65
2022/06/30 11:55:13;;;;;;;4.10;3.55;;;;;;;38.28;20.30;95407.34;1805472;79;21023;-65